sensor_id;sensor_type;location;lat;lon;timestamp;pressure;altitude;pressure_sealevel;temperature;humidity
79465;BME280;68932;47.410;8.232;2023-04-01T00:01:15;95900.63;;;7.89;74.15
79465;BME280;68932;47.410;8.232;2023-04-01T00:03:43;95899.08;;;7.88;73.87
79465;BME280;68932;47.410;8.232;2023-04-01T00:06:11;95900.00;;;7.88;74.06
79465;BME280;68932;47.410;8.232;2023-04-01T00:08:39;95897.03;;;7.88;74.04
79465;BME280;68932;47.410;8.232;2023-04-01T00:11:06;95900.90;;;7.90;73.80
79465;BME280;68932;47.410;8.232;2023-04-01T00:13:33;95894.36;;;7.91;73.75
79465;BME280;68932;47.410;8.232;2023-04-01T00:16:00;95903.85;;;7.93;73.64
79465;BME280;68932;47.410;8.232;2023-04-01T00:18:28;95897.54;;;7.93;73.73
79465;BME280;68932;47.410;8.232;2023-04-01T00:20:55;95894.42;;;7.93;73.61
79465;BME280;68932;47.410;8.232;2023-04-01T00:23:22;95884.67;;;7.92;73.46
79465;BME280;68932;47.410;8.232;2023-04-01T00:25:49;95881.31;;;7.93;73.34
79465;BME280;68932;47.410;8.232;2023-04-01T00:28:16;95880.24;;;7.93;73.13
79465;BME280;68932;47.410;8.232;2023-04-01T00:30:44;95882.00;;;7.93;72.95
79465;BME280;68932;47.410;8.232;2023-04-01T00:33:11;95882.95;;;7.92;73.07
79465;BME280;68932;47.410;8.232;2023-04-01T00:35:38;95889.39;;;7.90;73.06
79465;BME280;68932;47.410;8.232;2023-04-01T00:38:05;95884.05;;;7.89;72.91
79465;BME280;68932;47.410;8.232;2023-04-01T00:40:34;95899.86;;;7.87;72.93
79465;BME280;68932;47.410;8.232;2023-04-01T00:43:02;95898.52;;;7.87;72.89
79465;BME280;68932;47.410;8.232;2023-04-01T00:45:33;95894.15;;;7.84;72.84
79465;BME280;68932;47.410;8.232;2023-04-01T00:48:03;95892.33;;;7.83;72.89
79465;BME280;68932;47.410;8.232;2023-04-01T00:50:33;95890.77;;;7.83;72.77
79465;BME280;68932;47.410;8.232;2023-04-01T00:53:02;95896.08;;;7.82;72.48
79465;BME280;68932;47.410;8.232;2023-04-01T00:55:33;95892.40;;;7.80;72.43
79465;BME280;68932;47.410;8.232;2023-04-01T00:58:03;95885.75;;;7.77;72.01
79465;BME280;68932;47.410;8.232;2023-04-01T01:00:31;95886.98;;;7.75;71.85
79465;BME280;68932;47.410;8.232;2023-04-01T01:02:58;95884.73;;;7.72;71.70
79465;BME280;68932;47.410;8.232;2023-04-01T01:05:34;95881.25;;;7.72;71.72
79465;BME280;68932;47.410;8.232;2023-04-01T01:08:10;95884.05;;;7.72;72.10
79465;BME280;68932;47.410;8.232;2023-04-01T01:10:43;95889.71;;;7.71;72.67
79465;BME280;68932;47.410;8.232;2023-04-01T01:13:19;95889.77;;;7.67;73.17
79465;BME280;68932;47.410;8.232;2023-04-01T01:15:51;95882.80;;;7.68;73.29
79465;BME280;68932;47.410;8.232;2023-04-01T01:18:26;95879.77;;;7.69;73.36
79465;BME280;68932;47.410;8.232;2023-04-01T01:21:21;95872.27;;;7.69;73.50
79465;BME280;68932;47.410;8.232;2023-04-01T01:24:11;95872.50;;;7.68;73.60
79465;BME280;68932;47.410;8.232;2023-04-01T01:26:55;95867.71;;;7.67;73.68
79465;BME280;68932;47.410;8.232;2023-04-01T01:32:41;95873.67;;;7.66;73.65
79465;BME280;68932;47.410;8.232;2023-04-01T01:35:22;95866.34;;;7.66;73.59
79465;BME280;68932;47.410;8.232;2023-04-01T01:37:53;95863.48;;;7.65;73.83
79465;BME280;68932;47.410;8.232;2023-04-01T01:40:22;95849.30;;;7.66;74.05
79465;BME280;68932;47.410;8.232;2023-04-01T01:42:53;95847.84;;;7.64;74.02
79465;BME280;68932;47.410;8.232;2023-04-01T01:45:24;95852.29;;;7.63;74.07
79465;BME280;68932;47.410;8.232;2023-04-01T01:47:53;95847.55;;;7.60;73.86
79465;BME280;68932;47.410;8.232;2023-04-01T01:50:22;95846.21;;;7.59;73.70
79465;BME280;68932;47.410;8.232;2023-04-01T01:52:50;95842.23;;;7.59;73.46
79465;BME280;68932;47.410;8.232;2023-04-01T01:55:30;95838.63;;;7.58;73.19
79465;BME280;68932;47.410;8.232;2023-04-01T01:58:01;95833.65;;;7.57;73.03
79465;BME280;68932;47.410;8.232;2023-04-01T02:00:31;95831.14;;;7.55;72.84
79465;BME280;68932;47.410;8.232;2023-04-01T02:03:01;95843.56;;;7.55;73.09
79465;BME280;68932;47.410;8.232;2023-04-01T02:05:29;95842.75;;;7.54;73.12
79465;BME280;68932;47.410;8.232;2023-04-01T02:08:01;95839.97;;;7.54;72.96
79465;BME280;68932;47.410;8.232;2023-04-01T02:10:36;95842.92;;;7.54;73.04
79465;BME280;68932;47.410;8.232;2023-04-01T02:13:08;95840.21;;;7.53;73.04
79465;BME280;68932;47.410;8.232;2023-04-01T02:15:42;95849.02;;;7.52;73.15
79465;BME280;68932;47.410;8.232;2023-04-01T02:18:13;95856.14;;;7.52;72.90
79465;BME280;68932;47.410;8.232;2023-04-01T02:20:41;95868.58;;;7.52;73.01
79465;BME280;68932;47.410;8.232;2023-04-01T02:23:09;95867.14;;;7.52;73.28
79465;BME280;68932;47.410;8.232;2023-04-01T02:25:38;95869.64;;;7.51;73.65
79465;BME280;68932;47.410;8.232;2023-04-01T02:28:08;95866.58;;;7.51;74.19
79465;BME280;68932;47.410;8.232;2023-04-01T02:30:38;95869.45;;;7.49;75.00
79465;BME280;68932;47.410;8.232;2023-04-01T02:33:06;95863.57;;;7.46;75.17
79465;BME280;68932;47.410;8.232;2023-04-01T02:35:34;95861.13;;;7.44;75.23
79465;BME280;68932;47.410;8.232;2023-04-01T02:38:02;95854.36;;;7.41;75.32
79465;BME280;68932;47.410;8.232;2023-04-01T02:40:39;95847.84;;;7.37;75.47
79465;BME280;68932;47.410;8.232;2023-04-01T02:43:07;95847.63;;;7.35;75.34
79465;BME280;68932;47.410;8.232;2023-04-01T02:45:34;95848.54;;;7.34;75.30
79465;BME280;68932;47.410;8.232;2023-04-01T02:48:01;95849.70;;;7.33;75.11
79465;BME280;68932;47.410;8.232;2023-04-01T02:50:28;95847.75;;;7.31;75.20
79465;BME280;68932;47.410;8.232;2023-04-01T02:52:54;95852.95;;;7.29;75.15
79465;BME280;68932;47.410;8.232;2023-04-01T02:55:21;95850.36;;;7.26;75.42
79465;BME280;68932;47.410;8.232;2023-04-01T02:57:49;95850.08;;;7.25;75.28
79465;BME280;68932;47.410;8.232;2023-04-01T03:00:18;95850.78;;;7.25;75.48
79465;BME280;68932;47.410;8.232;2023-04-01T03:02:44;95857.56;;;7.23;75.52
79465;BME280;68932;47.410;8.232;2023-04-01T03:05:11;95857.30;;;7.22;75.62
79465;BME280;68932;47.410;8.232;2023-04-01T03:07:38;95858.98;;;7.20;75.81
79465;BME280;68932;47.410;8.232;2023-04-01T03:10:08;95855.60;;;7.18;76.02
79465;BME280;68932;47.410;8.232;2023-04-01T03:12:35;95852.27;;;7.18;76.24
79465;BME280;68932;47.410;8.232;2023-04-01T03:15:04;95848.48;;;7.18;76.31
79465;BME280;68932;47.410;8.232;2023-04-01T03:17:31;95849.83;;;7.16;76.23
79465;BME280;68932;47.410;8.232;2023-04-01T03:19:58;95844.40;;;7.14;76.31
79465;BME280;68932;47.410;8.232;2023-04-01T03:22:25;95848.96;;;7.13;76.12
79465;BME280;68932;47.410;8.232;2023-04-01T03:24:52;95837.89;;;7.15;75.90
79465;BME280;68932;47.410;8.232;2023-04-01T03:27:19;95841.11;;;7.16;75.85
79465;BME280;68932;47.410;8.232;2023-04-01T03:29:46;95842.60;;;7.17;75.81
79465;BME280;68932;47.410;8.232;2023-04-01T03:32:13;95849.34;;;7.15;75.72
79465;BME280;68932;47.410;8.232;2023-04-01T03:34:41;95854.42;;;7.15;75.64
79465;BME280;68932;47.410;8.232;2023-04-01T03:37:08;95852.20;;;7.17;75.44
79465;BME280;68932;47.410;8.232;2023-04-01T03:39:35;95852.44;;;7.18;75.38
79465;BME280;68932;47.410;8.232;2023-04-01T03:42:02;95849.54;;;7.20;75.20
79465;BME280;68932;47.410;8.232;2023-04-01T03:44:32;95855.89;;;7.22;75.04
79465;BME280;68932;47.410;8.232;2023-04-01T03:46:59;95859.70;;;7.22;75.00
79465;BME280;68932;47.410;8.232;2023-04-01T03:49:26;95858.23;;;7.23;74.89
79465;BME280;68932;47.410;8.232;2023-04-01T03:51:53;95854.73;;;7.26;74.96
79465;BME280;68932;47.410;8.232;2023-04-01T03:54:20;95853.27;;;7.29;74.82
79465;BME280;68932;47.410;8.232;2023-04-01T03:56:47;95858.08;;;7.30;74.66
79465;BME280;68932;47.410;8.232;2023-04-01T03:59:14;95850.07;;;7.30;74.62
79465;BME280;68932;47.410;8.232;2023-04-01T04:01:42;95849.52;;;7.30;74.64
79465;BME280;68932;47.410;8.232;2023-04-01T04:04:11;95848.95;;;7.31;74.78
79465;BME280;68932;47.410;8.232;2023-04-01T04:06:38;95855.70;;;7.32;74.67
79465;BME280;68932;47.410;8.232;2023-04-01T04:09:05;95857.98;;;7.32;74.54
79465;BME280;68932;47.410;8.232;2023-04-01T04:11:33;95857.96;;;7.32;74.28
79465;BME280;68932;47.410;8.232;2023-04-01T04:14:00;95857.34;;;7.31;74.35
79465;BME280;68932;47.410;8.232;2023-04-01T04:16:27;95859.83;;;7.30;74.37
79465;BME280;68932;47.410;8.232;2023-04-01T04:18:54;95856.18;;;7.30;74.15
79465;BME280;68932;47.410;8.232;2023-04-01T04:21:21;95856.65;;;7.31;74.23
79465;BME280;68932;47.410;8.232;2023-04-01T04:23:48;95863.02;;;7.32;74.49
79465;BME280;68932;47.410;8.232;2023-04-01T04:26:16;95866.58;;;7.31;74.57
79465;BME280;68932;47.410;8.232;2023-04-01T04:28:43;95866.08;;;7.28;74.53
79465;BME280;68932;47.410;8.232;2023-04-01T04:31:10;95869.48;;;7.24;74.79
79465;BME280;68932;47.410;8.232;2023-04-01T04:33:37;95868.80;;;7.21;74.77
79465;BME280;68932;47.410;8.232;2023-04-01T04:36:06;95873.17;;;7.18;74.85
79465;BME280;68932;47.410;8.232;2023-04-01T04:38:33;95877.52;;;7.16;75.02
79465;BME280;68932;47.410;8.232;2023-04-01T04:41:00;95888.17;;;7.14;75.25
79465;BME280;68932;47.410;8.232;2023-04-01T04:43:27;95877.95;;;7.08;74.38
79465;BME280;68932;47.410;8.232;2023-04-01T04:45:54;95882.50;;;7.02;74.56
79465;BME280;68932;47.410;8.232;2023-04-01T04:48:21;95883.90;;;7.00;74.53
79465;BME280;68932;47.410;8.232;2023-04-01T04:50:49;95881.55;;;6.96;74.61
79465;BME280;68932;47.410;8.232;2023-04-01T04:53:18;95872.43;;;6.94;74.78
79465;BME280;68932;47.410;8.232;2023-04-01T04:55:45;95873.67;;;6.91;74.88
79465;BME280;68932;47.410;8.232;2023-04-01T04:58:12;95876.59;;;6.89;75.03
79465;BME280;68932;47.410;8.232;2023-04-01T05:00:39;95874.95;;;6.88;75.20
79465;BME280;68932;47.410;8.232;2023-04-01T05:03:06;95878.33;;;6.87;75.07
79465;BME280;68932;47.410;8.232;2023-04-01T05:05:34;95877.70;;;6.86;75.21
79465;BME280;68932;47.410;8.232;2023-04-01T05:08:01;95881.36;;;6.86;75.20
79465;BME280;68932;47.410;8.232;2023-04-01T05:10:28;95881.63;;;6.85;75.39
79465;BME280;68932;47.410;8.232;2023-04-01T05:12:55;95877.31;;;6.87;75.36
79465;BME280;68932;47.410;8.232;2023-04-01T05:15:22;95881.89;;;6.89;75.39
79465;BME280;68932;47.410;8.232;2023-04-01T05:17:50;95882.30;;;6.90;75.52
79465;BME280;68932;47.410;8.232;2023-04-01T05:20:18;95888.09;;;6.89;75.67
79465;BME280;68932;47.410;8.232;2023-04-01T05:22:45;95898.54;;;6.90;75.75
79465;BME280;68932;47.410;8.232;2023-04-01T05:25:12;95891.42;;;6.92;75.82
79465;BME280;68932;47.410;8.232;2023-04-01T05:27:39;95881.63;;;6.92;76.12
79465;BME280;68932;47.410;8.232;2023-04-01T05:30:08;95889.47;;;6.92;76.02
79465;BME280;68932;47.410;8.232;2023-04-01T05:32:35;95893.19;;;6.91;75.95
79465;BME280;68932;47.410;8.232;2023-04-01T05:35:04;95889.39;;;6.91;75.87
79465;BME280;68932;47.410;8.232;2023-04-01T05:37:31;95888.55;;;6.93;76.09
79465;BME280;68932;47.410;8.232;2023-04-01T05:40:00;95890.35;;;6.94;75.95
79465;BME280;68932;47.410;8.232;2023-04-01T05:42:27;95891.66;;;6.96;76.12
79465;BME280;68932;47.410;8.232;2023-04-01T05:44:55;95898.44;;;6.96;76.18
79465;BME280;68932;47.410;8.232;2023-04-01T05:47:21;95893.75;;;6.98;76.27
79465;BME280;68932;47.410;8.232;2023-04-01T05:49:49;95897.71;;;7.01;76.39
79465;BME280;68932;47.410;8.232;2023-04-01T05:52:16;95906.80;;;7.04;76.41
79465;BME280;68932;47.410;8.232;2023-04-01T05:54:43;95909.96;;;7.06;76.42
79465;BME280;68932;47.410;8.232;2023-04-01T05:57:10;95903.33;;;7.08;76.70
79465;BME280;68932;47.410;8.232;2023-04-01T05:59:37;95907.94;;;7.10;76.49
79465;BME280;68932;47.410;8.232;2023-04-01T06:02:04;95908.02;;;7.11;76.49
79465;BME280;68932;47.410;8.232;2023-04-01T06:04:34;95911.27;;;7.15;76.47
79465;BME280;68932;47.410;8.232;2023-04-01T06:07:11;95908.15;;;7.17;76.34
79465;BME280;68932;47.410;8.232;2023-04-01T06:09:38;95913.48;;;7.20;76.53
79465;BME280;68932;47.410;8.232;2023-04-01T06:12:29;95915.09;;;7.23;76.60
79465;BME280;68932;47.410;8.232;2023-04-01T06:15:06;95917.90;;;7.25;76.42
79465;BME280;68932;47.410;8.232;2023-04-01T06:17:56;95923.46;;;7.28;76.49
79465;BME280;68932;47.410;8.232;2023-04-01T06:20:34;95924.30;;;7.31;76.64
79465;BME280;68932;47.410;8.232;2023-04-01T06:23:24;95914.02;;;7.33;76.50
79465;BME280;68932;47.410;8.232;2023-04-01T06:26:04;95913.57;;;7.37;76.37
79465;BME280;68932;47.410;8.232;2023-04-01T06:28:57;95910.72;;;7.40;76.26
79465;BME280;68932;47.410;8.232;2023-04-01T06:31:40;95913.12;;;7.43;76.07
79465;BME280;68932;47.410;8.232;2023-04-01T06:34:26;95917.87;;;7.45;75.82
79465;BME280;68932;47.410;8.232;2023-04-01T06:37:08;95914.29;;;7.46;75.53
79465;BME280;68932;47.410;8.232;2023-04-01T06:39:50;95917.52;;;7.48;75.65
79465;BME280;68932;47.410;8.232;2023-04-01T06:42:37;95902.88;;;7.50;75.38
79465;BME280;68932;47.410;8.232;2023-04-01T06:45:19;95898.60;;;7.54;75.17
79465;BME280;68932;47.410;8.232;2023-04-01T06:48:08;95897.48;;;7.57;74.89
79465;BME280;68932;47.410;8.232;2023-04-01T06:50:44;95898.83;;;7.58;74.71
79465;BME280;68932;47.410;8.232;2023-04-01T06:53:19;95905.22;;;7.56;74.55
79465;BME280;68932;47.410;8.232;2023-04-01T06:55:50;95898.14;;;7.55;74.73
79465;BME280;68932;47.410;8.232;2023-04-01T06:58:22;95899.95;;;7.54;74.51
79465;BME280;68932;47.410;8.232;2023-04-01T07:00:51;95891.29;;;7.53;74.43
79465;BME280;68932;47.410;8.232;2023-04-01T07:03:23;95901.88;;;7.51;74.30
79465;BME280;68932;47.410;8.232;2023-04-01T07:05:54;95907.14;;;7.49;74.44
79465;BME280;68932;47.410;8.232;2023-04-01T07:08:26;95912.58;;;7.48;74.52
79465;BME280;68932;47.410;8.232;2023-04-01T07:10:58;95911.16;;;7.49;74.46
79465;BME280;68932;47.410;8.232;2023-04-01T07:13:30;95906.17;;;7.48;74.32
79465;BME280;68932;47.410;8.232;2023-04-01T07:16:07;95901.71;;;7.44;74.50
79465;BME280;68932;47.410;8.232;2023-04-01T07:18:40;95899.66;;;7.41;74.65
79465;BME280;68932;47.410;8.232;2023-04-01T07:21:14;95909.11;;;7.38;74.89
79465;BME280;68932;47.410;8.232;2023-04-01T07:23:45;95914.92;;;7.37;74.88
79465;BME280;68932;47.410;8.232;2023-04-01T07:26:18;95910.98;;;7.36;75.00
79465;BME280;68932;47.410;8.232;2023-04-01T07:28:46;95914.99;;;7.36;75.24
79465;BME280;68932;47.410;8.232;2023-04-01T07:31:20;95916.67;;;7.35;75.40
79465;BME280;68932;47.410;8.232;2023-04-01T07:33:59;95919.29;;;7.35;75.59
79465;BME280;68932;47.410;8.232;2023-04-01T07:36:35;95915.16;;;7.36;75.63
79465;BME280;68932;47.410;8.232;2023-04-01T07:39:12;95909.77;;;7.39;75.68
79465;BME280;68932;47.410;8.232;2023-04-01T07:41:51;95926.83;;;7.39;75.74
79465;BME280;68932;47.410;8.232;2023-04-01T07:44:25;95927.21;;;7.39;75.61
79465;BME280;68932;47.410;8.232;2023-04-01T07:47:03;95923.21;;;7.38;75.46
79465;BME280;68932;47.410;8.232;2023-04-01T07:49:40;95924.67;;;7.37;75.40
79465;BME280;68932;47.410;8.232;2023-04-01T07:52:17;95928.14;;;7.35;75.42
79465;BME280;68932;47.410;8.232;2023-04-01T07:54:50;95928.73;;;7.34;75.57
79465;BME280;68932;47.410;8.232;2023-04-01T07:57:22;95932.41;;;7.34;75.57
79465;BME280;68932;47.410;8.232;2023-04-01T07:59:57;95932.45;;;7.36;75.93
79465;BME280;68932;47.410;8.232;2023-04-01T08:02:40;95937.44;;;7.37;75.79
79465;BME280;68932;47.410;8.232;2023-04-01T08:05:19;95934.45;;;7.37;76.00
79465;BME280;68932;47.410;8.232;2023-04-01T08:07:58;95936.62;;;7.36;76.17
79465;BME280;68932;47.410;8.232;2023-04-01T08:10:35;95937.26;;;7.37;76.03
79465;BME280;68932;47.410;8.232;2023-04-01T08:13:11;95940.39;;;7.37;76.35
79465;BME280;68932;47.410;8.232;2023-04-01T08:15:48;95936.25;;;7.37;76.29
79465;BME280;68932;47.410;8.232;2023-04-01T08:18:30;95935.89;;;7.34;76.11
79465;BME280;68932;47.410;8.232;2023-04-01T08:21:00;95935.24;;;7.33;76.40
79465;BME280;68932;47.410;8.232;2023-04-01T08:23:31;95935.19;;;7.34;76.26
79465;BME280;68932;47.410;8.232;2023-04-01T08:26:04;95935.33;;;7.35;76.17
79465;BME280;68932;47.410;8.232;2023-04-01T08:28:36;95940.50;;;7.35;76.21
79465;BME280;68932;47.410;8.232;2023-04-01T08:31:07;95942.56;;;7.36;76.29
79465;BME280;68932;47.410;8.232;2023-04-01T08:33:36;95944.65;;;7.38;76.39
79465;BME280;68932;47.410;8.232;2023-04-01T08:36:10;95944.44;;;7.42;76.51
79465;BME280;68932;47.410;8.232;2023-04-01T08:38:43;95948.36;;;7.43;76.39
79465;BME280;68932;47.410;8.232;2023-04-01T08:41:30;95945.35;;;7.44;76.38
79465;BME280;68932;47.410;8.232;2023-04-01T08:53:13;95957.17;;;7.44;76.86
79465;BME280;68932;47.410;8.232;2023-04-01T08:55:51;95951.09;;;7.44;76.98
79465;BME280;68932;47.410;8.232;2023-04-01T08:58:44;95948.77;;;7.44;77.02
79465;BME280;68932;47.410;8.232;2023-04-01T09:01:21;95948.52;;;7.46;77.06
79465;BME280;68932;47.410;8.232;2023-04-01T09:04:03;95946.05;;;7.49;77.30
79465;BME280;68932;47.410;8.232;2023-04-01T09:06:40;95956.02;;;7.50;77.24
79465;BME280;68932;47.410;8.232;2023-04-01T09:09:42;95954.65;;;7.52;77.26
79465;BME280;68932;47.410;8.232;2023-04-01T09:12:27;95948.19;;;7.57;77.40
79465;BME280;68932;47.410;8.232;2023-04-01T09:18:22;95958.70;;;7.67;77.23
79465;BME280;68932;47.410;8.232;2023-04-01T09:21:03;95960.29;;;7.69;76.70
79465;BME280;68932;47.410;8.232;2023-04-01T09:23:47;95953.21;;;7.71;76.40
79465;BME280;68932;47.410;8.232;2023-04-01T09:26:35;95959.27;;;7.79;76.20
79465;BME280;68932;47.410;8.232;2023-04-01T09:29:20;95956.14;;;7.86;75.59
79465;BME280;68932;47.410;8.232;2023-04-01T09:32:22;95956.48;;;7.93;75.33
79465;BME280;68932;47.410;8.232;2023-04-01T09:34:55;95960.52;;;8.00;74.87
79465;BME280;68932;47.410;8.232;2023-04-01T09:37:35;95958.55;;;8.06;74.85
79465;BME280;68932;47.410;8.232;2023-04-01T09:40:28;95959.30;;;8.12;74.67
79465;BME280;68932;47.410;8.232;2023-04-01T09:43:11;95955.71;;;8.17;74.32
79465;BME280;68932;47.410;8.232;2023-04-01T09:45:48;95962.30;;;8.19;74.20
79465;BME280;68932;47.410;8.232;2023-04-01T09:48:39;95963.61;;;8.20;74.38
79465;BME280;68932;47.410;8.232;2023-04-01T09:51:21;95955.38;;;8.23;74.59
79465;BME280;68932;47.410;8.232;2023-04-01T09:53:57;95964.64;;;8.28;74.25
79465;BME280;68932;47.410;8.232;2023-04-01T09:59:55;95960.61;;;8.28;74.26
79465;BME280;68932;47.410;8.232;2023-04-01T10:09:13;95963.11;;;8.27;74.77
79465;BME280;68932;47.410;8.232;2023-04-01T10:12:04;95965.02;;;8.28;74.53
79465;BME280;68932;47.410;8.232;2023-04-01T10:18:08;95967.77;;;8.23;74.59
79465;BME280;68932;47.410;8.232;2023-04-01T10:21:08;95964.48;;;8.28;74.91
79465;BME280;68932;47.410;8.232;2023-04-01T10:24:16;95968.23;;;8.31;75.24
79465;BME280;68932;47.410;8.232;2023-04-01T10:27:06;95971.13;;;8.37;75.35
79465;BME280;68932;47.410;8.232;2023-04-01T10:30:00;95962.27;;;8.41;75.31
79465;BME280;68932;47.410;8.232;2023-04-01T10:35:47;95957.87;;;8.56;75.08
79465;BME280;68932;47.410;8.232;2023-04-01T10:44:54;95954.38;;;8.68;74.05
79465;BME280;68932;47.410;8.232;2023-04-01T10:47:45;95962.02;;;8.71;74.14
79465;BME280;68932;47.410;8.232;2023-04-01T10:50:36;95960.86;;;8.70;73.93
79465;BME280;68932;47.410;8.232;2023-04-01T10:56:23;95958.27;;;8.74;73.88
79465;BME280;68932;47.410;8.232;2023-04-01T11:05:53;95961.52;;;8.75;73.50
79465;BME280;68932;47.410;8.232;2023-04-01T11:11:43;95962.95;;;8.70;73.68
79465;BME280;68932;47.410;8.232;2023-04-01T11:24:45;95958.75;;;8.54;75.17
79465;BME280;68932;47.410;8.232;2023-04-01T11:27:29;95948.70;;;8.55;75.14
79465;BME280;68932;47.410;8.232;2023-04-01T11:30:17;95949.05;;;8.60;74.91
79465;BME280;68932;47.410;8.232;2023-04-01T11:32:51;95948.39;;;8.62;74.16
79465;BME280;68932;47.410;8.232;2023-04-01T11:35:29;95949.14;;;8.66;74.48
79465;BME280;68932;47.410;8.232;2023-04-01T11:38:04;95954.19;;;8.68;74.50
79465;BME280;68932;47.410;8.232;2023-04-01T11:40:39;95954.02;;;8.71;74.55
79465;BME280;68932;47.410;8.232;2023-04-01T11:43:13;95950.64;;;8.76;74.51
79465;BME280;68932;47.410;8.232;2023-04-01T11:45:46;95955.03;;;8.81;73.88
79465;BME280;68932;47.410;8.232;2023-04-01T11:51:40;95961.87;;;8.87;74.07
79465;BME280;68932;47.410;8.232;2023-04-01T11:54:22;95967.38;;;8.89;73.77
79465;BME280;68932;47.410;8.232;2023-04-01T11:57:04;95958.95;;;8.91;73.67
79465;BME280;68932;47.410;8.232;2023-04-01T11:59:57;95956.30;;;9.01;73.71
79465;BME280;68932;47.410;8.232;2023-04-01T12:02:31;95946.26;;;9.11;73.44
79465;BME280;68932;47.410;8.232;2023-04-01T12:05:10;95941.13;;;9.21;73.08
79465;BME280;68932;47.410;8.232;2023-04-01T12:07:55;95935.58;;;9.32;73.08
79465;BME280;68932;47.410;8.232;2023-04-01T12:10:31;95942.66;;;9.44;72.87
79465;BME280;68932;47.410;8.232;2023-04-01T12:13:04;95943.63;;;9.54;71.40
79465;BME280;68932;47.410;8.232;2023-04-01T12:15:46;95936.27;;;9.63;71.23
79465;BME280;68932;47.410;8.232;2023-04-01T12:18:20;95939.17;;;9.73;71.00
79465;BME280;68932;47.410;8.232;2023-04-01T12:20:53;95936.39;;;9.82;71.04
79465;BME280;68932;47.410;8.232;2023-04-01T12:23:51;95944.52;;;9.85;70.49
79465;BME280;68932;47.410;8.232;2023-04-01T12:26:54;95935.02;;;9.79;70.26
79465;BME280;68932;47.410;8.232;2023-04-01T12:29:41;95928.45;;;9.85;70.92
79465;BME280;68932;47.410;8.232;2023-04-01T12:32:16;95920.82;;;9.99;70.96
79465;BME280;68932;47.410;8.232;2023-04-01T12:34:56;95919.81;;;10.14;70.35
79465;BME280;68932;47.410;8.232;2023-04-01T12:37:32;95916.52;;;10.22;69.16
79465;BME280;68932;47.410;8.232;2023-04-01T12:43:04;95911.46;;;10.35;69.09
79465;BME280;68932;47.410;8.232;2023-04-01T12:45:34;95910.81;;;10.41;67.95
79465;BME280;68932;47.410;8.232;2023-04-01T12:48:21;95910.02;;;10.45;67.73
79465;BME280;68932;47.410;8.232;2023-04-01T12:54:08;95903.39;;;10.57;67.32
79465;BME280;68932;47.410;8.232;2023-04-01T12:56:46;95902.18;;;10.67;67.81
79465;BME280;68932;47.410;8.232;2023-04-01T12:59:38;95905.40;;;10.76;67.54
79465;BME280;68932;47.410;8.232;2023-04-01T13:02:13;95904.28;;;10.82;66.57
79465;BME280;68932;47.410;8.232;2023-04-01T13:05:12;95901.58;;;10.83;66.43
79465;BME280;68932;47.410;8.232;2023-04-01T13:08:08;95903.91;;;10.86;65.97
79465;BME280;68932;47.410;8.232;2023-04-01T13:10:52;95905.84;;;10.88;65.86
79465;BME280;68932;47.410;8.232;2023-04-01T13:16:14;95903.92;;;10.96;65.66
79465;BME280;68932;47.410;8.232;2023-04-01T13:18:55;95908.45;;;10.95;65.29
79465;BME280;68932;47.410;8.232;2023-04-01T13:21:34;95902.05;;;10.90;65.04
79465;BME280;68932;47.410;8.232;2023-04-01T13:24:11;95911.49;;;10.84;64.98
79465;BME280;68932;47.410;8.232;2023-04-01T13:26:53;95911.49;;;10.82;65.43
79465;BME280;68932;47.410;8.232;2023-04-01T13:29:25;95908.80;;;10.83;65.44
79465;BME280;68932;47.410;8.232;2023-04-01T13:32:05;95904.09;;;10.82;65.53
79465;BME280;68932;47.410;8.232;2023-04-01T13:34:50;95906.08;;;10.82;65.97
79465;BME280;68932;47.410;8.232;2023-04-01T13:37:29;95903.35;;;10.80;65.66
79465;BME280;68932;47.410;8.232;2023-04-01T13:40:26;95901.08;;;10.80;65.43
79465;BME280;68932;47.410;8.232;2023-04-01T13:42:59;95892.95;;;10.81;65.43
79465;BME280;68932;47.410;8.232;2023-04-01T13:45:34;95888.23;;;10.83;65.14
79465;BME280;68932;47.410;8.232;2023-04-01T13:51:20;95886.40;;;10.90;64.08
79465;BME280;68932;47.410;8.232;2023-04-01T13:54:29;95881.21;;;10.95;63.90
79465;BME280;68932;47.410;8.232;2023-04-01T13:57:18;95887.77;;;10.99;63.97
79465;BME280;68932;47.410;8.232;2023-04-01T14:00:04;95890.65;;;10.98;64.08
79465;BME280;68932;47.410;8.232;2023-04-01T14:02:49;95898.23;;;10.93;63.94
79465;BME280;68932;47.410;8.232;2023-04-01T14:05:26;95900.57;;;10.87;64.03
79465;BME280;68932;47.410;8.232;2023-04-01T14:08:04;95901.52;;;10.75;64.62
79465;BME280;68932;47.410;8.232;2023-04-01T14:10:42;95903.13;;;10.64;65.17
79465;BME280;68932;47.410;8.232;2023-04-01T14:13:15;95923.98;;;10.54;65.39
79465;BME280;68932;47.410;8.232;2023-04-01T14:16:00;95924.02;;;10.38;66.58
79465;BME280;68932;47.410;8.232;2023-04-01T14:18:52;95926.66;;;10.09;68.03
79465;BME280;68932;47.410;8.232;2023-04-01T14:21:32;95946.20;;;9.84;69.31
79465;BME280;68932;47.410;8.232;2023-04-01T14:24:25;95943.16;;;9.67;69.93
79465;BME280;68932;47.410;8.232;2023-04-01T14:27:18;95935.99;;;9.53;70.77
79465;BME280;68932;47.410;8.232;2023-04-01T14:30:14;95933.66;;;9.48;71.59
79465;BME280;68932;47.410;8.232;2023-04-01T14:32:49;95931.95;;;9.40;71.83
79465;BME280;68932;47.410;8.232;2023-04-01T14:35:35;95930.54;;;9.33;71.55
79465;BME280;68932;47.410;8.232;2023-04-01T14:38:14;95940.57;;;9.31;72.07
79465;BME280;68932;47.410;8.232;2023-04-01T14:40:55;95946.90;;;9.30;72.67
79465;BME280;68932;47.410;8.232;2023-04-01T14:43:35;95949.47;;;9.31;72.86
79465;BME280;68932;47.410;8.232;2023-04-01T14:49:15;95968.35;;;9.24;72.99
79465;BME280;68932;47.410;8.232;2023-04-01T14:51:46;95950.42;;;9.20;73.11
79465;BME280;68932;47.410;8.232;2023-04-01T14:54:16;95931.38;;;9.23;73.51
79465;BME280;68932;47.410;8.232;2023-04-01T14:56:47;95934.02;;;9.34;73.47
79465;BME280;68932;47.410;8.232;2023-04-01T14:59:27;95929.84;;;9.54;73.65
79465;BME280;68932;47.410;8.232;2023-04-01T15:01:59;95939.08;;;9.77;73.41
79465;BME280;68932;47.410;8.232;2023-04-01T15:04:49;95939.86;;;9.93;73.24
79465;BME280;68932;47.410;8.232;2023-04-01T15:07:29;95938.35;;;10.08;72.89
79465;BME280;68932;47.410;8.232;2023-04-01T15:10:09;95932.90;;;10.17;72.33
79465;BME280;68932;47.410;8.232;2023-04-01T15:12:43;95938.63;;;10.17;72.41